METAR Data
IDs: Format: Raw Decoded Include TAF

Data at: 0900 UTC 09 Apr 2020

State: UT
No TAF found for K36U
K41U 090835Z AUTO 20006KT 10SM CLR 06/M05 A3001 RMK AO1 T00561054
No TAF found for K41U

No TAF found for K4BL
No TAF found for K4HV
K74V 090855Z AUTO 25007KT 10SM CLR 03/M02 A3006 RMK AO2
No TAF found for K74V

KBCE 090853Z AUTO 15004KT 10SM -RA SCT017 BKN025 OVC037 03/02 A3009 RMK AO2 SLP110 P0000 60005 T00330017 53005

KBCE 090524Z 0906/1006 13006KT P6SM VCSH SCT030 BKN060
  FM090800 16007KT 5SM -SHRASN SCT010 BKN025
  FM091000 17009KT P6SM VCSH SCT030 BKN060
  FM091800 17010KT P6SM SCT060 BKN120
  FM100300 28008KT P6SM SCT060 SCT120


KBDG 090855Z AUTO 12005KT 10SM 10/M05 A3012 RMK AO1 T00951050
No TAF found for KBDG

KBMC 090830Z AUTO 27005KT 10SM CLR 12/M07 A3001 RMK AO1 T01221066
No TAF found for KBMC

KCDC 090853Z AUTO 05007KT 10SM BKN043 OVC060 04/02 A3002 RMK AO2 RAE14 SLP121 P0000 60014 T00440022 58001

KCDC 090732Z 0908/1006 21012G20KT 5SM RA BR SCT010 BKN025
  FM090900 23008KT P6SM -SHRA SCT020 BKN040
  FM091200 22010KT P6SM VCSH SCT030 BKN060
  FM092000 23008KT P6SM SCT060 BKN120
  FM100300 VRB04KT P6SM SCT060 SCT120


KCNY 090853Z AUTO 03005KT 10SM CLR 12/M09 A2994 RMK AO2 SLP099 T01171094 50003

KCNY 090520Z 0906/1006 13006KT P6SM SKC
  FM091000 16006KT P6SM FEW120
  FM091700 22010G18KT P6SM SCT070 BKN090
  FM100200 26008KT P6SM FEW100


No TAF found for KDPG
KDTA 090835Z AUTO 00000KT 10SM CLR 09/02 A2998 RMK AO1
No TAF found for KDTA

No TAF found for KDXZ
KENV 090856Z AUTO 01020G25KT 10SM CLR 14/M04 A2995 RMK AO2 PK WND 02029/0830 SLP119 T01391039 58011

KENV 090524Z 0906/1006 01010KT P6SM SCT120
  FM091600 10009KT P6SM SCT060 BKN120
  FM100000 25010KT P6SM SCT060 SCT120


KHCR 090855Z AUTO 12003KT 10SM CLR 01/M03 A3004 RMK AO2

KHCR 090524Z 0906/1006 VRB04KT P6SM SCT060 SCT120
  FM092000 21007KT P6SM VCSH SCT030 BKN060
  FM100300 VRB04KT P6SM SCT060 BKN120


KHIF 090758Z AUTO 06019G30KT 10SM CLR 12/M04 A2999 RMK AO2 PK WND 07033/03 SLP117 T01171045

TAF KHIF 090502Z 0905/1011 06015G25KT 9999 FEW200 QNH3001INS
  BECMG 0914/0915 10009KT 9999 SCT120 QNH2994INS
  BECMG 0921/0922 19012G20KT 8000 -SHRA BKN040 QNH2989INS
  BECMG 1001/1002 10010G15KT 9999 NSW FEW060 QNH2991INS TX15/0921Z TN06/0912Z LAST NO AMDS AFT 0905 NEXT 0913


No TAF found for KHVE
KKNB 090855Z AUTO 00000KT 10SM CLR 05/04 A3010 RMK A01
No TAF found for KKNB

KLGU 090851Z AUTO 35005KT 10SM CLR 04/M01 A3006 RMK AO2 SLP157 T00441011 58005

KLGU 090524Z 0906/1006 VRB04KT P6SM SCT080 SCT120
  FM091900 34007KT P6SM SCT040 BKN080
  FM100300 VRB05KT P6SM SCT040 BKN080


KMLF 090852Z AUTO 19011KT 10SM -RA FEW010 SCT018 OVC043 05/04 A3003 RMK AO2 PK WND 21028/0832 WSHFT 0837 SLP137 P0009 60012 T00500039 53008
No TAF found for KMLF

KOGD 090853Z AUTO 06011KT 10SM CLR 13/M06 A2996 RMK AO2 SLP104 T01331061 58010

KOGD 090524Z 0906/1006 15006KT P6SM SCT060 SCT120
  FM092200 21010KT P6SM VCSH SCT030 BKN060


KPUC 090853Z AUTO 36004KT 10SM CLR 06/M08 A3001 RMK AO2 SLP129 T00611078 55004
No TAF found for KPUC

KPVU 090856Z AUTO 22004KT 10SM CLR 12/02 A2997 RMK AO2 SLP112 T01170022 58006

KPVU 090524Z 0906/1006 VRB05KT P6SM SCT060 SCT120
  FM091900 22010KT P6SM VCSH SCT030 BKN060
  FM100300 VRB04KT P6SM SCT060 BKN120


KSGU 090856Z AUTO 17004KT 10SM SCT016 SCT065 08/07 A3004 RMK AO2 SLP156 60000 T00780072 53003

KSGU 090524Z 0906/1006 18007KT P6SM -SHRA SCT020 BKN040
  FM090900 VRB04KT P6SM VCSH SCT040 BKN080
  FM091600 27006KT P6SM SCT060 BKN120


KSLC 090854Z 32006KT 10SM CLR 10/01 A2996 RMK AO2 SLP110 T01000011 58009

KSLC 090524Z 0906/1012 29010KT P6SM FEW200
  FM090800 15006KT P6SM SCT060 SCT120
  FM092100 22010KT P6SM VCSH SCT030 BKN060
  FM100400 15006KT P6SM SCT060 BKN120


No TAF found for KT62
KTVY 090855Z AUTO 23004KT 10SM CLR 06/03 A2997 RMK AO2
No TAF found for KTVY

No TAF found for KU16
No TAF found for KU24
No TAF found for KU28
KU42 090855Z AUTO 33008KT 10SM CLR 10/02 A2998 RMK AO1 T01030016
No TAF found for KU42

No TAF found for KU67
KVEL 090853Z AUTO 30005KT 10SM CLR 06/M04 A3004 RMK AO2 SLP138 T00561039 57003

KVEL 090520Z 0906/1006 34007KT P6SM SKC
  FM090800 17008KT P6SM SKC
  FM091400 09006KT P6SM FEW100
  FM092100 22010G18KT P6SM FEW080 SCT150
  FM100200 26008KT P6SM FEW070 SCT100